sensor_id;sensor_type;location;lat;lon;timestamp;temperature;humidity
37702;DHT22;23548;51.196;6.838;2023-02-03T00:00:58;9.10;99.90
37702;DHT22;23548;51.196;6.838;2023-02-03T00:03:24;9.10;99.90
37702;DHT22;23548;51.196;6.838;2023-02-03T00:05:50;9.10;99.90
37702;DHT22;23548;51.196;6.838;2023-02-03T00:08:16;9.10;99.90
37702;DHT22;23548;51.196;6.838;2023-02-03T00:10:43;9.10;99.90
37702;DHT22;23548;51.196;6.838;2023-02-03T00:13:09;9.20;99.90
37702;DHT22;23548;51.196;6.838;2023-02-03T00:15:35;9.10;99.90
37702;DHT22;23548;51.196;6.838;2023-02-03T00:18:01;9.10;99.90
37702;DHT22;23548;51.196;6.838;2023-02-03T00:20:27;9.10;99.90
37702;DHT22;23548;51.196;6.838;2023-02-03T00:22:52;9.00;99.90
37702;DHT22;23548;51.196;6.838;2023-02-03T00:25:18;9.10;99.90
37702;DHT22;23548;51.196;6.838;2023-02-03T00:27:46;9.10;99.90
37702;DHT22;23548;51.196;6.838;2023-02-03T00:30:12;9.10;99.90
37702;DHT22;23548;51.196;6.838;2023-02-03T00:32:37;9.10;99.90
37702;DHT22;23548;51.196;6.838;2023-02-03T00:35:04;9.10;99.90
37702;DHT22;23548;51.196;6.838;2023-02-03T00:37:30;9.10;99.90
37702;DHT22;23548;51.196;6.838;2023-02-03T00:39:56;9.10;99.90
37702;DHT22;23548;51.196;6.838;2023-02-03T00:42:21;9.10;99.90
37702;DHT22;23548;51.196;6.838;2023-02-03T00:44:47;9.10;99.90
37702;DHT22;23548;51.196;6.838;2023-02-03T00:47:13;9.20;99.90
37702;DHT22;23548;51.196;6.838;2023-02-03T00:49:39;9.10;99.90
37702;DHT22;23548;51.196;6.838;2023-02-03T00:52:05;9.10;99.90
37702;DHT22;23548;51.196;6.838;2023-02-03T00:54:30;9.20;99.90
37702;DHT22;23548;51.196;6.838;2023-02-03T00:56:56;9.20;99.90
37702;DHT22;23548;51.196;6.838;2023-02-03T00:59:22;9.20;99.90
37702;DHT22;23548;51.196;6.838;2023-02-03T01:01:48;9.20;99.90
37702;DHT22;23548;51.196;6.838;2023-02-03T01:04:15;9.20;99.90
37702;DHT22;23548;51.196;6.838;2023-02-03T01:06:41;9.20;99.90
37702;DHT22;23548;51.196;6.838;2023-02-03T01:09:07;9.20;99.90
37702;DHT22;23548;51.196;6.838;2023-02-03T01:11:32;9.20;99.90
37702;DHT22;23548;51.196;6.838;2023-02-03T01:13:58;9.20;99.90
37702;DHT22;23548;51.196;6.838;2023-02-03T01:16:27;9.30;99.90
37702;DHT22;23548;51.196;6.838;2023-02-03T01:18:54;9.20;99.90
37702;DHT22;23548;51.196;6.838;2023-02-03T01:21:23;9.20;99.90
37702;DHT22;23548;51.196;6.838;2023-02-03T01:23:49;9.20;99.90
37702;DHT22;23548;51.196;6.838;2023-02-03T01:26:18;9.20;99.90
37702;DHT22;23548;51.196;6.838;2023-02-03T01:28:56;9.30;99.90
37702;DHT22;23548;51.196;6.838;2023-02-03T01:31:28;9.30;99.90
37702;DHT22;23548;51.196;6.838;2023-02-03T01:33:54;9.30;99.90
37702;DHT22;23548;51.196;6.838;2023-02-03T01:36:23;9.30;99.90
37702;DHT22;23548;51.196;6.838;2023-02-03T01:38:49;9.20;99.90
37702;DHT22;23548;51.196;6.838;2023-02-03T01:41:20;9.30;99.90
37702;DHT22;23548;51.196;6.838;2023-02-03T01:43:53;9.20;99.90
37702;DHT22;23548;51.196;6.838;2023-02-03T01:46:37;9.30;99.90
37702;DHT22;23548;51.196;6.838;2023-02-03T01:49:15;9.30;99.90
37702;DHT22;23548;51.196;6.838;2023-02-03T01:51:42;9.30;99.90
37702;DHT22;23548;51.196;6.838;2023-02-03T01:54:12;9.30;99.90
37702;DHT22;23548;51.196;6.838;2023-02-03T01:56:41;9.20;99.90
37702;DHT22;23548;51.196;6.838;2023-02-03T01:59:08;9.30;99.90
37702;DHT22;23548;51.196;6.838;2023-02-03T02:01:35;9.30;99.90
37702;DHT22;23548;51.196;6.838;2023-02-03T02:04:02;9.30;99.90
37702;DHT22;23548;51.196;6.838;2023-02-03T02:06:29;9.30;99.90
37702;DHT22;23548;51.196;6.838;2023-02-03T02:08:57;9.30;99.90
37702;DHT22;23548;51.196;6.838;2023-02-03T02:11:25;9.30;99.90
37702;DHT22;23548;51.196;6.838;2023-02-03T02:13:56;9.30;99.90
37702;DHT22;23548;51.196;6.838;2023-02-03T02:16:45;9.30;99.90
37702;DHT22;23548;51.196;6.838;2023-02-03T02:25:01;9.30;99.90
37702;DHT22;23548;51.196;6.838;2023-02-03T02:41:48;9.20;99.90
37702;DHT22;23548;51.196;6.838;2023-02-03T02:44:37;9.30;99.90
37702;DHT22;23548;51.196;6.838;2023-02-03T02:47:14;9.20;99.90
37702;DHT22;23548;51.196;6.838;2023-02-03T02:49:53;9.20;99.90
37702;DHT22;23548;51.196;6.838;2023-02-03T02:52:21;9.30;99.90
37702;DHT22;23548;51.196;6.838;2023-02-03T02:54:52;9.30;99.90
37702;DHT22;23548;51.196;6.838;2023-02-03T02:57:20;9.30;99.90
37702;DHT22;23548;51.196;6.838;2023-02-03T02:59:48;9.30;99.90
37702;DHT22;23548;51.196;6.838;2023-02-03T03:02:13;9.20;99.90
37702;DHT22;23548;51.196;6.838;2023-02-03T03:04:40;9.30;99.90
37702;DHT22;23548;51.196;6.838;2023-02-03T03:07:22;9.30;99.90
37702;DHT22;23548;51.196;6.838;2023-02-03T03:09:55;9.30;99.90
37702;DHT22;23548;51.196;6.838;2023-02-03T03:12:34;9.20;99.90
37702;DHT22;23548;51.196;6.838;2023-02-03T03:15:11;9.20;99.90
37702;DHT22;23548;51.196;6.838;2023-02-03T03:17:43;9.30;99.90
37702;DHT22;23548;51.196;6.838;2023-02-03T03:20:14;9.30;99.90
37702;DHT22;23548;51.196;6.838;2023-02-03T03:22:49;9.30;99.90
37702;DHT22;23548;51.196;6.838;2023-02-03T03:25:18;9.30;99.90
37702;DHT22;23548;51.196;6.838;2023-02-03T03:27:55;9.20;99.90
37702;DHT22;23548;51.196;6.838;2023-02-03T03:30:27;9.20;99.90
37702;DHT22;23548;51.196;6.838;2023-02-03T03:32:55;9.20;99.90
37702;DHT22;23548;51.196;6.838;2023-02-03T03:35:22;9.20;99.90
37702;DHT22;23548;51.196;6.838;2023-02-03T03:37:57;9.20;99.90
37702;DHT22;23548;51.196;6.838;2023-02-03T03:40:34;9.20;99.90
37702;DHT22;23548;51.196;6.838;2023-02-03T03:43:05;9.20;99.90
37702;DHT22;23548;51.196;6.838;2023-02-03T03:45:57;9.20;99.90
37702;DHT22;23548;51.196;6.838;2023-02-03T03:51:31;9.20;99.90
37702;DHT22;23548;51.196;6.838;2023-02-03T03:54:02;9.10;99.90
37702;DHT22;23548;51.196;6.838;2023-02-03T03:56:49;9.10;99.90
37702;DHT22;23548;51.196;6.838;2023-02-03T03:59:19;9.10;99.90
37702;DHT22;23548;51.196;6.838;2023-02-03T04:01:47;9.10;99.90
37702;DHT22;23548;51.196;6.838;2023-02-03T04:04:14;9.20;99.90
37702;DHT22;23548;51.196;6.838;2023-02-03T04:06:40;9.20;99.90
37702;DHT22;23548;51.196;6.838;2023-02-03T04:09:06;9.20;99.90
37702;DHT22;23548;51.196;6.838;2023-02-03T04:11:32;9.20;99.90
37702;DHT22;23548;51.196;6.838;2023-02-03T04:14:16;9.20;99.90
37702;DHT22;23548;51.196;6.838;2023-02-03T04:16:42;9.20;99.90
37702;DHT22;23548;51.196;6.838;2023-02-03T04:19:08;9.20;99.90
37702;DHT22;23548;51.196;6.838;2023-02-03T04:21:33;9.20;99.90
37702;DHT22;23548;51.196;6.838;2023-02-03T04:23:59;9.20;99.90
37702;DHT22;23548;51.196;6.838;2023-02-03T04:26:25;9.30;99.90
37702;DHT22;23548;51.196;6.838;2023-02-03T04:28:50;9.30;99.90
37702;DHT22;23548;51.196;6.838;2023-02-03T04:31:16;9.20;99.90
37702;DHT22;23548;51.196;6.838;2023-02-03T04:33:42;9.30;99.90
37702;DHT22;23548;51.196;6.838;2023-02-03T04:36:08;9.30;99.90
37702;DHT22;23548;51.196;6.838;2023-02-03T04:38:33;9.30;99.90
37702;DHT22;23548;51.196;6.838;2023-02-03T04:40:59;9.20;99.90
37702;DHT22;23548;51.196;6.838;2023-02-03T04:43:25;9.30;99.90
37702;DHT22;23548;51.196;6.838;2023-02-03T04:45:51;9.20;99.90
37702;DHT22;23548;51.196;6.838;2023-02-03T04:48:16;9.20;99.90
37702;DHT22;23548;51.196;6.838;2023-02-03T04:50:42;9.20;99.90
37702;DHT22;23548;51.196;6.838;2023-02-03T04:53:08;9.20;99.90
37702;DHT22;23548;51.196;6.838;2023-02-03T04:55:33;9.20;99.90
37702;DHT22;23548;51.196;6.838;2023-02-03T04:58:00;9.20;99.90
37702;DHT22;23548;51.196;6.838;2023-02-03T05:00:27;9.20;99.90
37702;DHT22;23548;51.196;6.838;2023-02-03T05:02:53;9.20;99.90
37702;DHT22;23548;51.196;6.838;2023-02-03T05:05:20;9.20;99.90
37702;DHT22;23548;51.196;6.838;2023-02-03T05:07:45;9.20;99.90
37702;DHT22;23548;51.196;6.838;2023-02-03T05:10:11;9.20;99.90
37702;DHT22;23548;51.196;6.838;2023-02-03T05:12:37;9.20;99.90
37702;DHT22;23548;51.196;6.838;2023-02-03T05:15:03;9.20;99.90
37702;DHT22;23548;51.196;6.838;2023-02-03T05:17:29;9.20;99.90
37702;DHT22;23548;51.196;6.838;2023-02-03T05:19:55;9.40;99.90
37702;DHT22;23548;51.196;6.838;2023-02-03T05:22:21;9.20;99.90
37702;DHT22;23548;51.196;6.838;2023-02-03T05:24:46;9.20;99.90
37702;DHT22;23548;51.196;6.838;2023-02-03T05:27:12;9.20;99.90
37702;DHT22;23548;51.196;6.838;2023-02-03T05:29:38;9.20;99.90
37702;DHT22;23548;51.196;6.838;2023-02-03T05:32:03;9.20;99.90
37702;DHT22;23548;51.196;6.838;2023-02-03T05:34:29;9.20;99.90
37702;DHT22;23548;51.196;6.838;2023-02-03T05:36:55;9.20;99.90
37702;DHT22;23548;51.196;6.838;2023-02-03T05:39:21;9.20;99.90
37702;DHT22;23548;51.196;6.838;2023-02-03T05:41:46;9.30;99.90
37702;DHT22;23548;51.196;6.838;2023-02-03T05:44:26;9.30;99.90
37702;DHT22;23548;51.196;6.838;2023-02-03T05:46:54;9.20;99.90
37702;DHT22;23548;51.196;6.838;2023-02-03T05:49:20;9.30;99.90
37702;DHT22;23548;51.196;6.838;2023-02-03T05:51:49;9.30;99.90
37702;DHT22;23548;51.196;6.838;2023-02-03T05:54:15;9.30;99.90
37702;DHT22;23548;51.196;6.838;2023-02-03T05:56:41;9.30;99.90
37702;DHT22;23548;51.196;6.838;2023-02-03T05:59:07;9.30;99.90
37702;DHT22;23548;51.196;6.838;2023-02-03T06:01:33;9.30;99.90
37702;DHT22;23548;51.196;6.838;2023-02-03T06:04:00;9.30;99.90
37702;DHT22;23548;51.196;6.838;2023-02-03T06:06:26;9.30;99.90
37702;DHT22;23548;51.196;6.838;2023-02-03T06:09:02;9.30;99.90
37702;DHT22;23548;51.196;6.838;2023-02-03T06:11:29;9.30;99.90
37702;DHT22;23548;51.196;6.838;2023-02-03T06:13:55;9.30;99.90
37702;DHT22;23548;51.196;6.838;2023-02-03T06:16:23;9.30;99.90
37702;DHT22;23548;51.196;6.838;2023-02-03T06:18:50;9.40;99.90
37702;DHT22;23548;51.196;6.838;2023-02-03T06:21:16;9.40;99.90
37702;DHT22;23548;51.196;6.838;2023-02-03T06:23:42;9.30;99.90
37702;DHT22;23548;51.196;6.838;2023-02-03T06:26:08;9.40;99.90
37702;DHT22;23548;51.196;6.838;2023-02-03T06:28:33;9.40;99.90
37702;DHT22;23548;51.196;6.838;2023-02-03T06:30:59;9.40;99.90
37702;DHT22;23548;51.196;6.838;2023-02-03T06:33:25;9.40;99.90
37702;DHT22;23548;51.196;6.838;2023-02-03T06:35:52;9.40;99.90
37702;DHT22;23548;51.196;6.838;2023-02-03T06:38:18;9.40;99.90
37702;DHT22;23548;51.196;6.838;2023-02-03T06:40:48;9.40;99.90
37702;DHT22;23548;51.196;6.838;2023-02-03T06:43:14;9.40;99.90
37702;DHT22;23548;51.196;6.838;2023-02-03T06:45:40;9.40;99.90
37702;DHT22;23548;51.196;6.838;2023-02-03T06:48:05;9.40;99.90
37702;DHT22;23548;51.196;6.838;2023-02-03T06:50:32;9.50;99.90
37702;DHT22;23548;51.196;6.838;2023-02-03T06:52:58;9.50;99.90
37702;DHT22;23548;51.196;6.838;2023-02-03T06:55:23;9.50;99.90
37702;DHT22;23548;51.196;6.838;2023-02-03T06:57:49;9.50;99.90
37702;DHT22;23548;51.196;6.838;2023-02-03T07:00:16;9.50;99.90
37702;DHT22;23548;51.196;6.838;2023-02-03T07:02:42;9.40;99.90
37702;DHT22;23548;51.196;6.838;2023-02-03T07:05:09;9.50;99.90
37702;DHT22;23548;51.196;6.838;2023-02-03T07:07:35;9.50;99.90
37702;DHT22;23548;51.196;6.838;2023-02-03T07:10:02;9.50;99.90
37702;DHT22;23548;51.196;6.838;2023-02-03T07:12:28;9.60;99.90
37702;DHT22;23548;51.196;6.838;2023-02-03T07:14:54;9.50;99.90
37702;DHT22;23548;51.196;6.838;2023-02-03T07:17:19;9.40;99.90
37702;DHT22;23548;51.196;6.838;2023-02-03T07:19:45;9.50;99.90
37702;DHT22;23548;51.196;6.838;2023-02-03T07:22:11;9.50;99.90
37702;DHT22;23548;51.196;6.838;2023-02-03T07:24:36;9.60;99.90
37702;DHT22;23548;51.196;6.838;2023-02-03T07:27:02;9.60;99.90
37702;DHT22;23548;51.196;6.838;2023-02-03T07:29:28;9.50;99.90
37702;DHT22;23548;51.196;6.838;2023-02-03T07:31:54;9.50;99.90
37702;DHT22;23548;51.196;6.838;2023-02-03T07:34:20;9.50;99.90
37702;DHT22;23548;51.196;6.838;2023-02-03T07:36:45;9.50;99.90
37702;DHT22;23548;51.196;6.838;2023-02-03T07:39:11;9.50;99.90
37702;DHT22;23548;51.196;6.838;2023-02-03T07:41:37;9.60;99.90
37702;DHT22;23548;51.196;6.838;2023-02-03T07:44:03;9.60;99.90
37702;DHT22;23548;51.196;6.838;2023-02-03T07:46:29;9.60;99.90
37702;DHT22;23548;51.196;6.838;2023-02-03T07:48:55;9.60;99.90
37702;DHT22;23548;51.196;6.838;2023-02-03T07:51:20;9.70;99.90
37702;DHT22;23548;51.196;6.838;2023-02-03T07:53:46;9.70;99.90
37702;DHT22;23548;51.196;6.838;2023-02-03T07:56:12;9.70;99.90
37702;DHT22;23548;51.196;6.838;2023-02-03T07:58:38;9.70;99.90
37702;DHT22;23548;51.196;6.838;2023-02-03T08:01:15;9.80;99.90
37702;DHT22;23548;51.196;6.838;2023-02-03T08:03:41;9.80;99.90
37702;DHT22;23548;51.196;6.838;2023-02-03T08:06:07;9.80;99.90
37702;DHT22;23548;51.196;6.838;2023-02-03T08:08:34;9.80;99.90
37702;DHT22;23548;51.196;6.838;2023-02-03T08:10:59;9.80;99.90
37702;DHT22;23548;51.196;6.838;2023-02-03T08:13:25;9.80;99.90
37702;DHT22;23548;51.196;6.838;2023-02-03T08:15:51;9.90;99.90
37702;DHT22;23548;51.196;6.838;2023-02-03T08:18:17;9.80;99.90
37702;DHT22;23548;51.196;6.838;2023-02-03T08:20:42;9.90;99.90
37702;DHT22;23548;51.196;6.838;2023-02-03T08:23:08;9.90;99.90
37702;DHT22;23548;51.196;6.838;2023-02-03T08:25:34;9.90;99.90
37702;DHT22;23548;51.196;6.838;2023-02-03T08:28:00;10.00;99.90
37702;DHT22;23548;51.196;6.838;2023-02-03T08:30:25;9.90;99.90
37702;DHT22;23548;51.196;6.838;2023-02-03T08:32:51;9.90;99.90
37702;DHT22;23548;51.196;6.838;2023-02-03T08:35:17;9.80;99.90
37702;DHT22;23548;51.196;6.838;2023-02-03T08:37:43;9.80;99.90
37702;DHT22;23548;51.196;6.838;2023-02-03T08:40:10;10.00;99.90
37702;DHT22;23548;51.196;6.838;2023-02-03T08:42:36;9.90;99.90
37702;DHT22;23548;51.196;6.838;2023-02-03T08:45:03;9.90;99.90
37702;DHT22;23548;51.196;6.838;2023-02-03T08:47:32;9.90;99.90
37702;DHT22;23548;51.196;6.838;2023-02-03T08:50:02;9.90;99.90
37702;DHT22;23548;51.196;6.838;2023-02-03T08:52:28;10.10;99.90
37702;DHT22;23548;51.196;6.838;2023-02-03T08:54:54;10.20;99.90
37702;DHT22;23548;51.196;6.838;2023-02-03T08:57:20;10.10;99.90
37702;DHT22;23548;51.196;6.838;2023-02-03T08:59:46;9.90;99.90
37702;DHT22;23548;51.196;6.838;2023-02-03T09:02:17;10.00;99.90
37702;DHT22;23548;51.196;6.838;2023-02-03T09:04:45;9.90;99.90
37702;DHT22;23548;51.196;6.838;2023-02-03T09:07:12;9.90;99.90
37702;DHT22;23548;51.196;6.838;2023-02-03T09:09:37;9.80;99.90
37702;DHT22;23548;51.196;6.838;2023-02-03T09:12:05;9.90;99.90
37702;DHT22;23548;51.196;6.838;2023-02-03T09:14:32;9.90;99.90
37702;DHT22;23548;51.196;6.838;2023-02-03T09:17:02;9.80;99.90
37702;DHT22;23548;51.196;6.838;2023-02-03T09:19:28;9.80;99.90
37702;DHT22;23548;51.196;6.838;2023-02-03T09:21:54;9.80;99.90
37702;DHT22;23548;51.196;6.838;2023-02-03T09:24:22;9.90;99.90
37702;DHT22;23548;51.196;6.838;2023-02-03T09:26:48;9.90;99.90
37702;DHT22;23548;51.196;6.838;2023-02-03T09:29:14;9.90;99.90
37702;DHT22;23548;51.196;6.838;2023-02-03T09:31:40;9.80;99.90
37702;DHT22;23548;51.196;6.838;2023-02-03T09:34:06;9.80;99.90
37702;DHT22;23548;51.196;6.838;2023-02-03T09:36:32;9.90;99.90
37702;DHT22;23548;51.196;6.838;2023-02-03T09:38:58;9.80;99.90
37702;DHT22;23548;51.196;6.838;2023-02-03T09:46:33;9.70;99.90
37702;DHT22;23548;51.196;6.838;2023-02-03T09:52:36;9.60;99.90
37702;DHT22;23548;51.196;6.838;2023-02-03T09:57:22;9.60;99.90
37702;DHT22;23548;51.196;6.838;2023-02-03T09:59:49;9.70;99.90
37702;DHT22;23548;51.196;6.838;2023-02-03T10:08:22;9.80;99.90
37702;DHT22;23548;51.196;6.838;2023-02-03T10:11:22;9.70;99.90
37702;DHT22;23548;51.196;6.838;2023-02-03T10:13:59;9.80;99.90
37702;DHT22;23548;51.196;6.838;2023-02-03T10:18:58;9.70;99.90
37702;DHT22;23548;51.196;6.838;2023-02-03T10:23:53;9.70;99.90
37702;DHT22;23548;51.196;6.838;2023-02-03T10:26:25;9.80;99.90
37702;DHT22;23548;51.196;6.838;2023-02-03T10:29:19;9.80;99.90
37702;DHT22;23548;51.196;6.838;2023-02-03T10:31:46;9.80;99.90
37702;DHT22;23548;51.196;6.838;2023-02-03T10:34:14;9.70;99.90
37702;DHT22;23548;51.196;6.838;2023-02-03T10:39:40;9.80;99.90
37702;DHT22;23548;51.196;6.838;2023-02-03T10:42:07;9.80;99.90
37702;DHT22;23548;51.196;6.838;2023-02-03T10:44:47;9.80;99.90
37702;DHT22;23548;51.196;6.838;2023-02-03T10:49:39;9.80;99.90
37702;DHT22;23548;51.196;6.838;2023-02-03T10:52:04;9.80;99.90
37702;DHT22;23548;51.196;6.838;2023-02-03T10:54:34;9.80;99.90
37702;DHT22;23548;51.196;6.838;2023-02-03T10:57:04;9.80;99.90
37702;DHT22;23548;51.196;6.838;2023-02-03T10:59:34;9.90;99.90
37702;DHT22;23548;51.196;6.838;2023-02-03T11:02:07;9.90;99.90
37702;DHT22;23548;51.196;6.838;2023-02-03T11:04:33;9.90;99.90
37702;DHT22;23548;51.196;6.838;2023-02-03T11:07:01;9.90;99.90
37702;DHT22;23548;51.196;6.838;2023-02-03T11:12:13;9.90;99.90
37702;DHT22;23548;51.196;6.838;2023-02-03T11:14:42;10.00;99.90
37702;DHT22;23548;51.196;6.838;2023-02-03T11:17:25;10.00;99.90
37702;DHT22;23548;51.196;6.838;2023-02-03T11:19:53;10.10;99.90
37702;DHT22;23548;51.196;6.838;2023-02-03T11:22:34;10.10;99.90
37702;DHT22;23548;51.196;6.838;2023-02-03T11:25:03;10.20;99.90
37702;DHT22;23548;51.196;6.838;2023-02-03T11:27:32;10.20;99.90
37702;DHT22;23548;51.196;6.838;2023-02-03T11:30:16;10.20;99.90
37702;DHT22;23548;51.196;6.838;2023-02-03T11:32:46;10.10;99.90
37702;DHT22;23548;51.196;6.838;2023-02-03T11:35:24;10.20;99.90
37702;DHT22;23548;51.196;6.838;2023-02-03T11:37:55;10.10;99.90
37702;DHT22;23548;51.196;6.838;2023-02-03T11:48:01;10.00;99.90
37702;DHT22;23548;51.196;6.838;2023-02-03T11:53:36;10.10;99.90
37702;DHT22;23548;51.196;6.838;2023-02-03T12:02:30;10.10;99.90
37702;DHT22;23548;51.196;6.838;2023-02-03T12:05:36;10.20;99.90
37702;DHT22;23548;51.196;6.838;2023-02-03T12:17:11;10.10;99.90
37702;DHT22;23548;51.196;6.838;2023-02-03T12:30:50;10.30;99.90
37702;DHT22;23548;51.196;6.838;2023-02-03T12:33:29;10.30;99.90
37702;DHT22;23548;51.196;6.838;2023-02-03T12:36:08;10.30;99.90
37702;DHT22;23548;51.196;6.838;2023-02-03T12:38:41;10.30;99.90
37702;DHT22;23548;51.196;6.838;2023-02-03T12:41:33;10.30;99.90
37702;DHT22;23548;51.196;6.838;2023-02-03T12:44:25;10.30;99.90
37702;DHT22;23548;51.196;6.838;2023-02-03T12:46:55;10.30;99.90
37702;DHT22;23548;51.196;6.838;2023-02-03T12:49:35;10.40;99.90
37702;DHT22;23548;51.196;6.838;2023-02-03T12:58:09;10.50;99.90
37702;DHT22;23548;51.196;6.838;2023-02-03T13:03:32;10.60;99.90
37702;DHT22;23548;51.196;6.838;2023-02-03T13:14:46;10.80;99.90
37702;DHT22;23548;51.196;6.838;2023-02-03T13:17:21;10.80;99.90
37702;DHT22;23548;51.196;6.838;2023-02-03T13:20:13;10.90;99.90
37702;DHT22;23548;51.196;6.838;2023-02-03T13:22:40;10.90;99.90
37702;DHT22;23548;51.196;6.838;2023-02-03T13:25:35;10.90;99.90
37702;DHT22;23548;51.196;6.838;2023-02-03T13:28:11;10.90;99.90
37702;DHT22;23548;51.196;6.838;2023-02-03T13:36:15;11.10;99.90
37702;DHT22;23548;51.196;6.838;2023-02-03T13:42:08;11.10;99.90
37702;DHT22;23548;51.196;6.838;2023-02-03T13:44:36;11.00;99.90
37702;DHT22;23548;51.196;6.838;2023-02-03T13:47:04;11.10;99.90
37702;DHT22;23548;51.196;6.838;2023-02-03T13:49:32;11.10;99.90
37702;DHT22;23548;51.196;6.838;2023-02-03T13:51:59;11.10;99.90
37702;DHT22;23548;51.196;6.838;2023-02-03T13:54:28;11.10;99.90
37702;DHT22;23548;51.196;6.838;2023-02-03T13:56:58;11.10;99.90
37702;DHT22;23548;51.196;6.838;2023-02-03T13:59:30;11.10;99.90
37702;DHT22;23548;51.196;6.838;2023-02-03T14:18:04;10.70;99.90
37702;DHT22;23548;51.196;6.838;2023-02-03T14:20:53;10.70;99.90
37702;DHT22;23548;51.196;6.838;2023-02-03T14:23:47;10.60;99.90
37702;DHT22;23548;51.196;6.838;2023-02-03T14:26:30;10.50;99.90
37702;DHT22;23548;51.196;6.838;2023-02-03T14:28:57;10.50;99.90
37702;DHT22;23548;51.196;6.838;2023-02-03T14:31:24;10.50;99.90
37702;DHT22;23548;51.196;6.838;2023-02-03T14:33:54;10.50;99.90
37702;DHT22;23548;51.196;6.838;2023-02-03T14:36:42;10.60;99.90
37702;DHT22;23548;51.196;6.838;2023-02-03T14:47:25;10.60;99.90
37702;DHT22;23548;51.196;6.838;2023-02-03T14:55:24;10.50;99.90
37702;DHT22;23548;51.196;6.838;2023-02-03T14:58:00;10.40;99.90
37702;DHT22;23548;51.196;6.838;2023-02-03T15:00:33;10.50;99.90
37702;DHT22;23548;51.196;6.838;2023-02-03T15:05:48;10.30;99.90
37702;DHT22;23548;51.196;6.838;2023-02-03T15:08:31;10.10;99.90
37702;DHT22;23548;51.196;6.838;2023-02-03T15:10:58;9.90;99.90
37702;DHT22;23548;51.196;6.838;2023-02-03T15:13:30;9.90;99.90
37702;DHT22;23548;51.196;6.838;2023-02-03T15:15:58;9.80;99.90
37702;DHT22;23548;51.196;6.838;2023-02-03T15:18:29;9.80;99.90
37702;DHT22;23548;51.196;6.838;2023-02-03T15:20:55;9.80;99.90
37702;DHT22;23548;51.196;6.838;2023-02-03T15:23:22;9.60;99.90
37702;DHT22;23548;51.196;6.838;2023-02-03T15:26:02;9.40;99.90
37702;DHT22;23548;51.196;6.838;2023-02-03T15:28:35;9.20;99.90
37702;DHT22;23548;51.196;6.838;2023-02-03T15:31:41;9.10;99.90
37702;DHT22;23548;51.196;6.838;2023-02-03T15:34:43;9.00;99.90
37702;DHT22;23548;51.196;6.838;2023-02-03T15:36:52;9.00;99.90
37702;DHT22;23548;51.196;6.838;2023-02-03T15:41:50;8.90;99.90
37702;DHT22;23548;51.196;6.838;2023-02-03T15:44:30;8.90;99.90
37702;DHT22;23548;51.196;6.838;2023-02-03T15:46:58;8.90;99.90
37702;DHT22;23548;51.196;6.838;2023-02-03T15:49:34;8.90;99.90
37702;DHT22;23548;51.196;6.838;2023-02-03T15:52:14;8.90;99.90
37702;DHT22;23548;51.196;6.838;2023-02-03T15:54:44;8.90;99.90
37702;DHT22;23548;51.196;6.838;2023-02-03T15:59:56;8.90;99.90
37702;DHT22;23548;51.196;6.838;2023-02-03T16:04:55;8.90;99.90
37702;DHT22;23548;51.196;6.838;2023-02-03T16:07:24;9.00;99.90
37702;DHT22;23548;51.196;6.838;2023-02-03T16:09:55;9.00;99.90
37702;DHT22;23548;51.196;6.838;2023-02-03T16:12:26;9.10;99.90
37702;DHT22;23548;51.196;6.838;2023-02-03T16:14:54;9.00;99.90
37702;DHT22;23548;51.196;6.838;2023-02-03T16:19:50;9.00;99.90
37702;DHT22;23548;51.196;6.838;2023-02-03T16:22:43;9.10;99.90
37702;DHT22;23548;51.196;6.838;2023-02-03T16:27:54;9.10;99.90
37702;DHT22;23548;51.196;6.838;2023-02-03T16:33:38;9.20;99.90
37702;DHT22;23548;51.196;6.838;2023-02-03T16:36:22;9.10;99.90
37702;DHT22;23548;51.196;6.838;2023-02-03T16:42:37;9.20;99.90
37702;DHT22;23548;51.196;6.838;2023-02-03T16:45:21;9.30;99.90
37702;DHT22;23548;51.196;6.838;2023-02-03T16:48:07;9.30;99.90
37702;DHT22;23548;51.196;6.838;2023-02-03T16:50:51;9.20;99.90
37702;DHT22;23548;51.196;6.838;2023-02-03T16:53:26;9.30;99.90
37702;DHT22;23548;51.196;6.838;2023-02-03T16:55:54;9.30;99.90
37702;DHT22;23548;51.196;6.838;2023-02-03T16:58:20;9.30;99.90
37702;DHT22;23548;51.196;6.838;2023-02-03T17:00:48;9.40;99.90
37702;DHT22;23548;51.196;6.838;2023-02-03T17:03:19;9.30;99.90
37702;DHT22;23548;51.196;6.838;2023-02-03T17:05:47;9.30;99.90
37702;DHT22;23548;51.196;6.838;2023-02-03T17:08:14;9.30;99.90
37702;DHT22;23548;51.196;6.838;2023-02-03T17:10:41;9.30;99.90
37702;DHT22;23548;51.196;6.838;2023-02-03T17:13:08;9.40;99.90
37702;DHT22;23548;51.196;6.838;2023-02-03T17:15:41;9.40;99.90
37702;DHT22;23548;51.196;6.838;2023-02-03T17:18:07;9.50;99.90
37702;DHT22;23548;51.196;6.838;2023-02-03T17:20:33;9.40;99.90
37702;DHT22;23548;51.196;6.838;2023-02-03T17:22:59;9.40;99.90
37702;DHT22;23548;51.196;6.838;2023-02-03T17:25:25;9.50;99.90
37702;DHT22;23548;51.196;6.838;2023-02-03T17:27:50;9.50;99.90
37702;DHT22;23548;51.196;6.838;2023-02-03T17:30:16;9.50;99.90
37702;DHT22;23548;51.196;6.838;2023-02-03T17:32:42;9.50;99.90
37702;DHT22;23548;51.196;6.838;2023-02-03T17:35:08;9.50;99.90
37702;DHT22;23548;51.196;6.838;2023-02-03T17:37:35;9.50;99.90
37702;DHT22;23548;51.196;6.838;2023-02-03T17:40:01;9.50;99.90
37702;DHT22;23548;51.196;6.838;2023-02-03T17:42:27;9.40;99.90
37702;DHT22;23548;51.196;6.838;2023-02-03T17:44:53;9.40;99.90
37702;DHT22;23548;51.196;6.838;2023-02-03T17:47:19;9.40;99.90
37702;DHT22;23548;51.196;6.838;2023-02-03T17:49:44;9.40;99.90
37702;DHT22;23548;51.196;6.838;2023-02-03T17:52:11;9.40;99.90
37702;DHT22;23548;51.196;6.838;2023-02-03T17:54:37;9.40;99.90
37702;DHT22;23548;51.196;6.838;2023-02-03T17:57:03;9.40;99.90
37702;DHT22;23548;51.196;6.838;2023-02-03T17:59:29;9.40;99.90
37702;DHT22;23548;51.196;6.838;2023-02-03T18:01:55;9.40;99.90
37702;DHT22;23548;51.196;6.838;2023-02-03T18:04:21;9.40;99.90
37702;DHT22;23548;51.196;6.838;2023-02-03T18:06:46;9.40;99.90
37702;DHT22;23548;51.196;6.838;2023-02-03T18:09:12;9.40;99.90
37702;DHT22;23548;51.196;6.838;2023-02-03T18:11:41;9.40;99.90
37702;DHT22;23548;51.196;6.838;2023-02-03T18:14:08;9.40;99.90
37702;DHT22;23548;51.196;6.838;2023-02-03T18:16:35;9.40;99.90
37702;DHT22;23548;51.196;6.838;2023-02-03T18:19:04;9.50;99.90
37702;DHT22;23548;51.196;6.838;2023-02-03T18:21:29;9.40;99.90
37702;DHT22;23548;51.196;6.838;2023-02-03T18:23:57;9.40;99.90
37702;DHT22;23548;51.196;6.838;2023-02-03T18:26:30;9.40;99.90
37702;DHT22;23548;51.196;6.838;2023-02-03T18:29:02;9.40;99.90
37702;DHT22;23548;51.196;6.838;2023-02-03T18:31:28;9.40;99.90
37702;DHT22;23548;51.196;6.838;2023-02-03T18:33:54;9.40;99.90
37702;DHT22;23548;51.196;6.838;2023-02-03T18:36:20;9.40;99.90
37702;DHT22;23548;51.196;6.838;2023-02-03T18:38:46;9.30;99.90
37702;DHT22;23548;51.196;6.838;2023-02-03T18:41:14;9.30;99.90
37702;DHT22;23548;51.196;6.838;2023-02-03T18:43:40;9.30;99.90
37702;DHT22;23548;51.196;6.838;2023-02-03T18:46:11;9.30;99.90
37702;DHT22;23548;51.196;6.838;2023-02-03T18:48:37;9.20;99.90